Terminal Aerodrome Forecast
Issued by NWS St Louis, MO

Home | Current Version | Previous Version | Text Only | Print | Product List | Glossary On
Versions: 1 2 3 4 5 6 7 8 9 10 11 12 13 14 15 16 17 18 19 20 21 22 23 24 25 26 27 28 29
554
FTUS43 KLSX 172326
TAFSTL
TAF
KSTL 172326Z 1800/1906 16012G21KT P6SM OVC025
     FM180300 18012G18KT P6SM OVC015
     FM181100 20012KT 6SM -SHRA OVC035
     FM181300 24012G19KT 6SM -SHRA VCTS OVC030CB
     FM181700 31019G33KT 5SM -RA OVC015
     FM182200 31019G33KT P6SM BKN060=

USA.gov is the U.S. government's official web portal to all federal, state and local government web resources and services.